createdAt,value
2022-10-20T00:00:35.300Z,5.00
2022-10-20T00:03:03.136Z,6.90
2022-10-20T00:05:32.373Z,8.97
2022-10-20T00:08:00.414Z,5.40
2022-10-20T00:10:28.240Z,7.03
2022-10-20T00:12:56.034Z,6.23
2022-10-20T00:15:23.932Z,6.63
2022-10-20T00:17:51.748Z,9.97
2022-10-20T00:20:19.764Z,10.03
2022-10-20T00:22:48.942Z,7.23
2022-10-20T00:25:17.094Z,6.83
2022-10-20T00:27:44.943Z,10.40
2022-10-20T00:30:12.973Z,8.53
2022-10-20T00:32:40.822Z,9.70
2022-10-20T00:35:09.526Z,10.30
2022-10-20T00:37:37.345Z,13.70
2022-10-20T00:40:07.606Z,15.03
2022-10-20T00:42:35.549Z,15.23
2022-10-20T00:45:03.928Z,15.30
2022-10-20T00:47:39.757Z,14.67
2022-10-20T00:50:11.257Z,15.47
2022-10-20T00:52:41.040Z,19.30
2022-10-20T00:55:12.457Z,15.77
2022-10-20T00:57:40.521Z,16.20
2022-10-20T01:00:09.178Z,16.60
2022-10-20T01:02:37.329Z,16.97
2022-10-20T01:05:06.201Z,16.97
2022-10-20T01:07:34.381Z,17.40
2022-10-20T01:10:03.289Z,20.13
2022-10-20T01:12:40.583Z,24.00
2022-10-20T01:15:14.251Z,19.10
2022-10-20T01:17:48.704Z,21.10
2022-10-20T01:21:00.970Z,23.57
2022-10-20T01:23:56.702Z,22.70
2022-10-20T01:27:08.069Z,24.70
2022-10-20T01:29:40.342Z,23.27
2022-10-20T01:32:16.532Z,25.00
2022-10-20T01:34:53.176Z,24.87
2022-10-20T01:37:40.717Z,23.63
2022-10-20T01:40:22.949Z,23.53
2022-10-20T01:42:53.015Z,22.73
2022-10-20T01:45:24.972Z,24.07
2022-10-20T01:47:54.549Z,22.73
2022-10-20T01:50:23.435Z,22.70
2022-10-20T01:52:51.305Z,24.37
2022-10-20T01:55:19.841Z,24.60
2022-10-20T01:58:03.411Z,27.63
2022-10-20T02:00:32.615Z,25.10
2022-10-20T02:03:15.855Z,24.57
2022-10-20T02:05:59.584Z,23.57
2022-10-20T02:08:32.035Z,22.97
2022-10-20T02:11:03.340Z,24.57
2022-10-20T02:13:33.047Z,23.20
2022-10-20T02:16:08.674Z,23.83
2022-10-20T02:18:41.958Z,24.20
2022-10-20T02:21:10.864Z,22.80
2022-10-20T02:23:41.942Z,25.13
2022-10-20T02:26:14.039Z,23.63
2022-10-20T02:28:47.496Z,21.87
2022-10-20T02:31:17.744Z,23.07
2022-10-20T02:33:47.080Z,23.70
2022-10-20T02:36:18.829Z,22.90
2022-10-20T02:38:46.932Z,23.87
2022-10-20T02:41:14.933Z,26.17
2022-10-20T02:43:42.745Z,25.10
2022-10-20T02:46:10.673Z,22.30
2022-10-20T02:48:39.969Z,23.23
2022-10-20T02:51:07.780Z,24.00
2022-10-20T02:53:35.616Z,23.97
2022-10-20T02:56:03.412Z,21.93
2022-10-20T02:58:31.224Z,24.13
2022-10-20T03:00:59.064Z,25.97
2022-10-20T03:03:26.913Z,23.67
2022-10-20T03:05:56.365Z,22.17
2022-10-20T03:08:24.236Z,22.80
2022-10-20T03:10:52.046Z,23.87
2022-10-20T03:13:19.877Z,21.83
2022-10-20T03:15:48.180Z,22.97
2022-10-20T03:18:15.970Z,23.97
2022-10-20T03:20:45.085Z,24.03
2022-10-20T03:23:16.476Z,24.60
2022-10-20T03:25:47.857Z,21.57
2022-10-20T03:28:15.943Z,22.63
2022-10-20T03:30:43.789Z,23.10
2022-10-20T03:33:11.587Z,20.23
2022-10-20T03:35:39.372Z,20.07
2022-10-20T03:38:07.212Z,20.80
2022-10-20T03:40:36.369Z,21.70
2022-10-20T03:43:04.211Z,21.80
2022-10-20T03:45:32.034Z,21.33
2022-10-20T03:47:59.866Z,22.33
2022-10-20T03:50:27.983Z,20.53
2022-10-20T03:52:55.811Z,19.87
2022-10-20T03:55:23.609Z,22.23
2022-10-20T03:57:52.785Z,22.40
2022-10-20T04:00:20.839Z,19.80
2022-10-20T04:02:48.725Z,19.20
2022-10-20T04:05:18.995Z,18.20
2022-10-20T04:07:46.872Z,19.37
2022-10-20T04:10:16.471Z,19.70
2022-10-20T04:12:44.809Z,22.40
2022-10-20T04:15:14.205Z,19.40
2022-10-20T04:17:42.038Z,19.50
2022-10-20T04:20:10.422Z,19.30
2022-10-20T04:22:39.054Z,18.90
2022-10-20T04:25:07.616Z,20.23
2022-10-20T04:27:35.688Z,19.27
2022-10-20T04:30:03.744Z,19.07
2022-10-20T04:32:32.944Z,19.17
2022-10-20T04:35:00.911Z,18.37
2022-10-20T04:37:29.045Z,18.60
2022-10-20T04:39:57.676Z,19.10
2022-10-20T04:42:25.530Z,20.30
2022-10-20T04:44:53.396Z,21.20
2022-10-20T04:47:21.205Z,19.53
2022-10-20T04:49:50.380Z,19.73
2022-10-20T04:52:20.634Z,19.50
2022-10-20T04:54:48.457Z,17.50
2022-10-20T04:57:16.268Z,18.40
2022-10-20T04:59:44.053Z,19.30
2022-10-20T05:02:12.008Z,20.63
2022-10-20T05:04:39.867Z,21.90
2022-10-20T05:07:09.020Z,19.53
2022-10-20T05:09:36.833Z,18.80
2022-10-20T05:12:04.986Z,20.10
2022-10-20T05:14:32.868Z,17.97
2022-10-20T05:17:00.868Z,18.97
2022-10-20T05:19:28.757Z,19.00
2022-10-20T05:21:56.681Z,18.17
2022-10-20T05:24:29.896Z,19.47
2022-10-20T05:26:57.953Z,21.10
2022-10-20T05:29:25.737Z,19.70
2022-10-20T05:31:53.550Z,18.47
2022-10-20T05:34:21.366Z,20.20
2022-10-20T05:36:49.184Z,20.00
2022-10-20T05:39:17.092Z,18.87
2022-10-20T05:41:46.259Z,20.67
2022-10-20T05:44:14.721Z,20.40
2022-10-20T05:46:42.800Z,19.27
2022-10-20T05:49:15.457Z,20.50
2022-10-20T05:51:43.853Z,19.30
2022-10-20T05:54:13.514Z,19.87
2022-10-20T05:56:42.053Z,18.87
2022-10-20T05:59:12.492Z,20.27
2022-10-20T06:01:48.102Z,19.13
2022-10-20T06:04:17.726Z,18.60
2022-10-20T06:06:45.749Z,19.37
2022-10-20T06:09:13.622Z,19.70
2022-10-20T06:11:41.498Z,16.83
2022-10-20T06:14:11.322Z,18.30
2022-10-20T06:16:39.437Z,19.90
2022-10-20T06:19:07.808Z,22.53
2022-10-20T06:21:37.132Z,19.23
2022-10-20T06:24:06.756Z,19.30
2022-10-20T06:26:37.289Z,17.90
2022-10-20T06:29:06.333Z,19.00
2022-10-20T06:31:38.911Z,18.90
2022-10-20T06:34:07.740Z,18.23
2022-10-20T06:36:37.197Z,17.07
2022-10-20T06:39:06.588Z,14.87
2022-10-20T06:41:34.669Z,16.07
2022-10-20T06:44:02.593Z,15.70
2022-10-20T06:46:32.202Z,16.43
2022-10-20T06:49:03.635Z,13.50
2022-10-20T06:51:31.723Z,13.10
2022-10-20T06:54:00.898Z,14.27
2022-10-20T06:56:30.513Z,14.17
2022-10-20T06:58:59.993Z,13.10
2022-10-20T07:01:30.409Z,14.10
2022-10-20T07:04:00.708Z,15.07
2022-10-20T07:06:31.994Z,13.53
2022-10-20T07:09:00.564Z,13.60
2022-10-20T07:11:30.046Z,14.10
2022-10-20T07:13:59.845Z,13.90
2022-10-20T07:20:14.713Z,12.47
2022-10-20T07:22:43.852Z,13.90
2022-10-20T07:25:11.690Z,12.47
2022-10-20T07:27:39.509Z,11.87
2022-10-20T07:30:08.181Z,12.77
2022-10-20T07:32:36.850Z,13.27
2022-10-20T07:35:05.401Z,13.27
2022-10-20T07:37:33.249Z,12.20
2022-10-20T07:40:02.383Z,12.73
2022-10-20T07:42:30.366Z,13.20
2022-10-20T07:44:58.151Z,13.20
2022-10-20T07:47:26.125Z,13.27
2022-10-20T07:49:53.937Z,13.77
2022-10-20T07:52:21.785Z,13.23
2022-10-20T07:54:50.189Z,11.50
2022-10-20T07:57:19.346Z,11.63
2022-10-20T07:59:47.162Z,12.33
2022-10-20T08:02:16.017Z,12.00
2022-10-20T08:04:45.306Z,12.33
2022-10-20T08:07:13.131Z,11.00
2022-10-20T08:09:41.099Z,11.00
2022-10-20T08:12:09.063Z,10.70
2022-10-20T08:14:38.216Z,11.07
2022-10-20T08:17:06.431Z,11.17
2022-10-20T08:22:19.829Z,11.30
2022-10-20T08:24:47.723Z,10.50
2022-10-20T08:27:15.565Z,10.93
2022-10-20T08:29:50.866Z,12.13
2022-10-20T08:32:28.288Z,10.90
2022-10-20T08:34:56.108Z,10.70
2022-10-20T08:37:23.966Z,10.80
2022-10-20T08:39:51.776Z,10.60
2022-10-20T08:42:19.666Z,10.20
2022-10-20T08:44:49.397Z,10.80
2022-10-20T08:47:30.900Z,11.33
2022-10-20T08:50:02.017Z,9.60
2022-10-20T08:52:29.983Z,11.57
2022-10-20T08:54:58.970Z,9.60
2022-10-20T08:57:29.416Z,9.97
2022-10-20T09:00:06.843Z,10.13
2022-10-20T09:02:38.768Z,10.13
2022-10-20T09:05:09.684Z,10.73
2022-10-20T09:07:40.218Z,9.40
2022-10-20T09:10:25.442Z,10.70
2022-10-20T09:12:54.077Z,10.00
2022-10-20T09:15:26.681Z,10.70
2022-10-20T09:17:57.178Z,10.23
2022-10-20T09:20:29.432Z,11.50
2022-10-20T09:22:57.273Z,10.97
2022-10-20T09:25:27.511Z,10.87
2022-10-20T09:27:57.097Z,10.03
2022-10-20T09:30:34.307Z,13.10
2022-10-20T09:33:16.065Z,11.47
2022-10-20T09:35:47.981Z,10.37
2022-10-20T09:38:22.431Z,10.20
2022-10-20T09:40:59.016Z,10.40
2022-10-20T09:43:27.775Z,10.27
2022-10-20T09:46:01.404Z,8.90
2022-10-20T09:48:32.625Z,10.70
2022-10-20T09:51:01.949Z,10.47
2022-10-20T09:53:33.439Z,10.10
2022-10-20T09:56:01.629Z,9.00
2022-10-20T09:58:31.393Z,9.03
2022-10-20T10:01:04.854Z,8.70
2022-10-20T10:03:40.718Z,8.90
2022-10-20T10:06:22.955Z,8.87
2022-10-20T10:08:50.783Z,8.87
2022-10-20T10:11:20.578Z,7.40
2022-10-20T10:13:50.174Z,8.40
2022-10-20T10:16:22.589Z,9.43
2022-10-20T10:18:57.766Z,8.80
2022-10-20T10:21:25.651Z,8.50
2022-10-20T10:23:55.405Z,8.17
2022-10-20T10:26:46.962Z,7.10
2022-10-20T10:29:25.624Z,8.23
2022-10-20T10:31:59.541Z,8.30
2022-10-20T10:34:44.676Z,7.90
2022-10-20T10:37:15.158Z,7.20
2022-10-20T10:39:44.341Z,7.67
2022-10-20T10:42:31.289Z,7.90
2022-10-20T10:45:08.422Z,7.60
2022-10-20T10:47:54.748Z,8.07
2022-10-20T10:50:38.214Z,7.33
2022-10-20T10:53:20.000Z,7.30
2022-10-20T10:55:54.830Z,8.00
2022-10-20T10:58:40.621Z,6.80
2022-10-20T11:01:27.878Z,8.70
2022-10-20T11:04:16.807Z,7.97
2022-10-20T11:06:55.541Z,8.30
2022-10-20T11:09:31.898Z,7.83
2022-10-20T11:12:22.222Z,8.33
2022-10-20T11:14:57.673Z,7.50
2022-10-20T11:17:40.921Z,8.60
2022-10-20T11:20:31.116Z,7.80
2022-10-20T11:23:21.312Z,8.33
2022-10-20T11:25:53.604Z,8.03
2022-10-20T11:28:30.911Z,8.10
2022-10-20T11:30:59.728Z,9.37
2022-10-20T11:33:35.759Z,8.13
2022-10-20T11:36:13.652Z,7.50
2022-10-20T11:38:44.954Z,7.87
2022-10-20T11:41:19.023Z,7.87
2022-10-20T11:43:53.495Z,8.73
2022-10-20T11:46:26.673Z,8.47
2022-10-20T11:48:57.355Z,8.10
2022-10-20T11:52:06.757Z,8.50
2022-10-20T11:54:59.482Z,7.93
2022-10-20T11:57:39.597Z,7.40
2022-10-20T12:00:21.447Z,8.50
2022-10-20T12:03:25.645Z,6.97
2022-10-20T12:06:11.066Z,7.97
2022-10-20T12:09:03.386Z,7.60
2022-10-20T12:11:39.186Z,6.70
2022-10-20T12:14:20.370Z,7.90
2022-10-20T12:17:12.072Z,8.90
2022-10-20T12:19:40.472Z,7.10
2022-10-20T12:22:42.395Z,7.37
2022-10-20T12:25:20.294Z,8.20
2022-10-20T12:28:28.306Z,6.90
2022-10-20T12:30:58.646Z,8.40
2022-10-20T12:33:38.404Z,7.63
2022-10-20T12:36:33.169Z,5.63
2022-10-20T12:39:19.670Z,6.70
2022-10-20T12:41:59.646Z,6.57
2022-10-20T12:44:32.101Z,7.23
2022-10-20T12:47:05.675Z,6.53
2022-10-20T12:49:35.135Z,7.83
2022-10-20T12:52:05.648Z,8.43
2022-10-20T12:54:38.999Z,6.53
2022-10-20T12:57:27.690Z,10.00
2022-10-20T12:59:57.012Z,6.97
2022-10-20T13:02:52.236Z,6.60
2022-10-20T13:05:46.879Z,6.47
2022-10-20T13:08:23.553Z,12.30
2022-10-20T13:10:53.793Z,6.33
2022-10-20T13:14:06.186Z,5.67
2022-10-20T13:16:36.144Z,5.60
2022-10-20T13:19:08.722Z,7.80
2022-10-20T13:21:36.740Z,10.23
2022-10-20T13:24:16.391Z,10.13
2022-10-20T13:26:50.492Z,12.00
2022-10-20T13:29:23.531Z,10.00
2022-10-20T13:32:06.333Z,6.10
2022-10-20T13:34:39.961Z,6.10
2022-10-20T13:37:22.381Z,7.20
2022-10-20T13:39:58.868Z,6.33
2022-10-20T13:42:38.991Z,7.23
2022-10-20T13:45:18.609Z,6.87
2022-10-20T13:47:51.982Z,7.67
2022-10-20T13:50:23.662Z,6.00
2022-10-20T13:52:54.758Z,6.07
2022-10-20T13:55:24.829Z,9.00
2022-10-20T13:57:56.172Z,9.60
2022-10-20T14:00:27.672Z,6.60
2022-10-20T14:03:00.028Z,8.00
2022-10-20T14:05:29.400Z,7.90
2022-10-20T14:07:57.539Z,5.93
2022-10-20T14:10:30.091Z,9.87
2022-10-20T14:12:58.559Z,7.13
2022-10-20T14:15:31.188Z,5.50
2022-10-20T14:18:05.424Z,6.17
2022-10-20T14:20:34.772Z,8.23
2022-10-20T14:23:04.026Z,6.10
2022-10-20T14:25:32.918Z,7.60
2022-10-20T14:28:02.824Z,8.07
2022-10-20T14:30:35.403Z,6.13
2022-10-20T14:33:07.901Z,9.23
2022-10-20T14:35:42.644Z,6.63
2022-10-20T14:38:18.848Z,9.10
2022-10-20T14:40:52.072Z,6.37
2022-10-20T14:43:22.261Z,7.07
2022-10-20T14:45:55.414Z,5.90
2022-10-20T14:48:30.416Z,6.60
2022-10-20T14:50:58.270Z,5.23
2022-10-20T14:53:33.237Z,6.57
2022-10-20T14:56:02.485Z,5.27
2022-10-20T14:58:37.135Z,7.43
2022-10-20T15:01:23.049Z,7.23
2022-10-20T15:04:15.981Z,5.23
2022-10-20T15:06:44.702Z,7.97
2022-10-20T15:09:23.913Z,6.23
2022-10-20T15:11:51.800Z,8.20
2022-10-20T15:14:19.661Z,5.73
2022-10-20T15:16:49.365Z,5.30
2022-10-20T15:19:32.233Z,6.07
2022-10-20T15:22:03.285Z,8.43
2022-10-20T15:24:31.104Z,7.50
2022-10-20T15:26:59.892Z,7.30
2022-10-20T15:29:28.556Z,9.97
2022-10-20T15:31:57.120Z,7.47
2022-10-20T15:34:26.594Z,11.47
2022-10-20T15:36:54.493Z,15.50
2022-10-20T15:39:22.295Z,8.10
2022-10-20T15:41:53.042Z,10.10
2022-10-20T15:44:23.427Z,10.40
2022-10-20T15:46:53.411Z,7.63
2022-10-20T15:49:21.589Z,7.93
2022-10-20T15:51:51.598Z,11.10
2022-10-20T15:54:21.573Z,7.80
2022-10-20T15:56:49.505Z,6.90
2022-10-20T15:59:17.304Z,12.23
2022-10-20T16:01:45.099Z,6.70
2022-10-20T16:04:23.088Z,8.67
2022-10-20T16:06:57.600Z,7.43
2022-10-20T16:09:25.691Z,6.53
2022-10-20T16:11:53.585Z,7.67
2022-10-20T16:14:21.420Z,7.13
2022-10-20T16:16:49.256Z,8.13
2022-10-20T16:19:17.127Z,6.37
2022-10-20T16:21:44.926Z,6.03
2022-10-20T16:24:14.073Z,6.77
2022-10-20T16:26:41.901Z,7.03
2022-10-20T16:29:09.703Z,5.37
2022-10-20T16:31:37.500Z,6.57
2022-10-20T16:34:05.329Z,5.93
2022-10-20T16:36:33.639Z,5.87
2022-10-20T16:39:01.423Z,9.20
2022-10-20T16:41:30.620Z,8.93
2022-10-20T16:44:00.947Z,12.63
2022-10-20T16:46:29.424Z,6.03
2022-10-20T16:48:57.393Z,6.23
2022-10-20T16:51:25.597Z,5.30
2022-10-20T16:53:57.346Z,6.97
2022-10-20T16:56:28.077Z,7.70
2022-10-20T16:58:57.515Z,6.90
2022-10-20T17:01:25.813Z,7.23
2022-10-20T17:03:54.663Z,5.67
2022-10-20T17:06:25.054Z,10.33
2022-10-20T17:08:54.827Z,6.53
2022-10-20T17:11:25.097Z,9.00
2022-10-20T17:13:53.253Z,6.10
2022-10-20T17:16:27.817Z,6.77
2022-10-20T17:18:57.909Z,5.43
2022-10-20T17:21:26.410Z,7.40
2022-10-20T17:23:54.410Z,5.77
2022-10-20T17:26:23.871Z,6.50
2022-10-20T17:28:54.578Z,6.90
2022-10-20T17:31:23.805Z,5.57
2022-10-20T17:33:52.425Z,5.67
2022-10-20T17:36:25.811Z,5.53
2022-10-20T17:38:58.015Z,7.53
2022-10-20T17:41:25.853Z,9.30
2022-10-20T17:43:53.772Z,5.43
2022-10-20T17:46:23.257Z,7.47
2022-10-20T17:48:51.077Z,5.33
2022-10-20T17:51:20.694Z,5.03
2022-10-20T17:53:50.691Z,7.73
2022-10-20T17:56:20.348Z,5.53
2022-10-20T17:58:50.116Z,8.93
2022-10-20T18:01:19.961Z,6.70
2022-10-20T18:03:54.178Z,6.60
2022-10-20T18:06:24.355Z,6.53
2022-10-20T18:08:54.495Z,7.60
2022-10-20T18:11:24.305Z,6.23
2022-10-20T18:13:52.442Z,6.83
2022-10-20T18:16:21.802Z,5.80
2022-10-20T18:18:51.825Z,7.60
2022-10-20T18:21:20.676Z,7.57
2022-10-20T18:23:48.693Z,8.37
2022-10-20T18:26:18.297Z,7.20
2022-10-20T18:28:48.399Z,12.10
2022-10-20T18:31:18.656Z,7.63
2022-10-20T18:33:47.424Z,8.70
2022-10-20T18:36:18.185Z,8.50
2022-10-20T18:38:47.555Z,8.60
2022-10-20T18:41:18.141Z,9.33
2022-10-20T18:43:46.764Z,9.77
2022-10-20T18:46:15.980Z,8.23
2022-10-20T18:48:44.071Z,8.70
2022-10-20T18:51:13.709Z,8.73
2022-10-20T18:53:44.264Z,8.00
2022-10-20T18:56:14.707Z,7.80
2022-10-20T18:58:47.855Z,8.43
2022-10-20T19:01:17.645Z,7.30
2022-10-20T19:03:46.783Z,7.60
2022-10-20T19:06:16.638Z,9.57
2022-10-20T19:08:46.000Z,8.70
2022-10-20T19:11:16.494Z,7.80
2022-10-20T19:13:44.273Z,7.87
2022-10-20T19:16:15.563Z,7.97
2022-10-20T19:18:45.808Z,7.10
2022-10-20T19:21:14.185Z,8.43
2022-10-20T19:23:46.643Z,9.50
2022-10-20T19:26:18.958Z,7.40
2022-10-20T19:28:48.622Z,8.07
2022-10-20T19:31:21.238Z,9.20
2022-10-20T19:33:51.194Z,11.63
2022-10-20T19:36:19.798Z,7.80
2022-10-20T19:38:48.040Z,10.67
2022-10-20T19:41:17.492Z,8.50
2022-10-20T19:43:45.354Z,8.00
2022-10-20T19:46:15.304Z,8.13
2022-10-20T19:48:43.534Z,8.30
2022-10-20T19:51:11.662Z,8.40
2022-10-20T19:53:40.270Z,8.40
2022-10-20T19:56:09.268Z,10.73
2022-10-20T19:58:42.606Z,8.97
2022-10-20T20:01:13.671Z,7.20
2022-10-20T20:03:41.617Z,6.67
2022-10-20T20:06:11.824Z,8.00
2022-10-20T20:08:39.717Z,7.37
2022-10-20T20:11:07.594Z,7.67
2022-10-20T20:13:35.421Z,7.40
2022-10-20T20:16:08.444Z,6.90
2022-10-20T20:18:36.962Z,7.70
2022-10-20T20:21:06.329Z,7.50
2022-10-20T20:23:47.583Z,8.30
2022-10-20T20:26:22.931Z,10.13
2022-10-20T20:28:52.836Z,6.93
2022-10-20T20:31:23.072Z,8.70
2022-10-20T20:33:53.070Z,10.60
2022-10-20T20:36:21.493Z,11.03
2022-10-20T20:38:52.516Z,11.53
2022-10-20T20:41:24.474Z,9.87
2022-10-20T20:43:52.614Z,19.67
2022-10-20T20:46:23.929Z,12.73
2022-10-20T20:48:52.076Z,12.67
2022-10-20T20:51:20.450Z,10.60
2022-10-20T20:53:48.382Z,13.53
2022-10-20T20:56:19.564Z,7.40
2022-10-20T20:58:49.878Z,7.07
2022-10-20T21:01:19.583Z,7.33
2022-10-20T21:03:49.061Z,7.40
2022-10-20T21:06:18.441Z,6.80
2022-10-20T21:08:48.266Z,7.07
2022-10-20T21:11:18.398Z,6.67
2022-10-20T21:13:47.344Z,7.43
2022-10-20T21:16:17.111Z,8.93
2022-10-20T21:18:49.682Z,6.40
2022-10-20T21:21:19.661Z,6.60
2022-10-20T21:23:47.780Z,7.27
2022-10-20T21:26:17.332Z,6.87
2022-10-20T21:28:45.680Z,5.77
2022-10-20T21:31:15.573Z,6.07
2022-10-20T21:33:43.925Z,6.53
2022-10-20T21:36:15.565Z,7.40
2022-10-20T21:38:44.446Z,6.67
2022-10-20T21:41:14.685Z,7.40
2022-10-20T21:43:44.571Z,6.70
2022-10-20T21:46:13.934Z,6.60
2022-10-20T21:48:43.184Z,6.70
2022-10-20T21:51:14.031Z,6.40
2022-10-20T21:53:41.942Z,6.73
2022-10-20T21:56:10.804Z,5.77
2022-10-20T21:58:39.355Z,7.47
2022-10-20T22:01:12.142Z,4.93
2022-10-20T22:03:40.330Z,6.53
2022-10-20T22:06:09.313Z,6.33
2022-10-20T22:08:40.167Z,6.70
2022-10-20T22:11:11.337Z,5.53
2022-10-20T22:13:39.471Z,9.97
2022-10-20T22:16:08.363Z,9.10
2022-10-20T22:18:36.261Z,6.43
2022-10-20T22:21:04.473Z,6.83
2022-10-20T22:23:32.384Z,5.90
2022-10-20T22:26:02.406Z,6.70
2022-10-20T22:28:30.701Z,7.33
2022-10-20T22:30:58.535Z,6.20
2022-10-20T22:33:26.362Z,7.57
2022-10-20T22:35:54.228Z,7.07
2022-10-20T22:38:22.158Z,7.30
2022-10-20T22:40:49.952Z,6.17
2022-10-20T22:43:19.111Z,5.57
2022-10-20T22:45:46.925Z,11.17
2022-10-20T22:48:14.760Z,7.60
2022-10-20T22:50:43.113Z,7.13
2022-10-20T22:53:11.262Z,8.13
2022-10-20T22:55:39.176Z,8.00
2022-10-20T22:58:07.204Z,6.00
2022-10-20T23:00:36.476Z,6.80
2022-10-20T23:03:04.460Z,6.10
2022-10-20T23:05:32.318Z,9.73
2022-10-20T23:08:00.597Z,8.70
2022-10-20T23:10:28.570Z,6.00
2022-10-20T23:12:56.354Z,8.23
2022-10-20T23:15:24.197Z,7.63
2022-10-20T23:17:53.443Z,8.10
2022-10-20T23:20:21.266Z,7.20
2022-10-20T23:22:49.160Z,16.27
2022-10-20T23:25:17.221Z,9.03
2022-10-20T23:27:45.037Z,9.20
2022-10-20T23:30:12.833Z,8.80
2022-10-20T23:32:40.669Z,11.70
2022-10-20T23:35:10.349Z,8.33
2022-10-20T23:37:39.876Z,12.57
2022-10-20T23:40:09.140Z,8.83
2022-10-20T23:42:36.934Z,8.73
2022-10-20T23:45:05.376Z,10.03
2022-10-20T23:47:33.217Z,10.43
2022-10-20T23:50:01.001Z,10.60
2022-10-20T23:52:30.253Z,9.00
2022-10-20T23:54:58.128Z,7.43
2022-10-20T23:57:25.923Z,10.43
2022-10-20T23:59:53.738Z,9.70
